Time;durP1;ratioP1;P1;durP2;ratioP2;P2;SDS_P1;SDS_P2;PMS_P1;PMS_P2;Temp;Humidity;BMP_temperature;BMP_pressure;BME280_temperature;BME280_humidity;BME280_pressure;Samples;Min_cycle;Max_cycle;Signal;HPM_P1;HPM_P2
2023/02/06 00:01:36;;;;;;;7.45;4.28;;;;;;;14.51;41.45;102234.38;5051665;28;20057;-53
2023/02/06 00:04:06;;;;;;;7.13;4.15;;;;;;;14.45;42.19;102231.94;5051926;28;20044;-53
2023/02/06 00:06:34;;;;;;;6.35;4.15;;;;;;;14.43;42.31;102239.19;5051850;28;20049;-51
2023/02/06 00:09:03;;;;;;;8.02;4.05;;;;;;;14.40;42.32;102244.69;5052030;28;20112;-51
2023/02/06 00:11:32;;;;;;;7.93;4.80;;;;;;;14.37;41.99;102247.50;5051737;28;20083;-51
2023/02/06 00:14:00;;;;;;;9.40;4.03;;;;;;;14.35;42.27;102252.94;5051768;28;20083;-54
2023/02/06 00:16:30;;;;;;;7.75;4.10;;;;;;;14.30;42.29;102249.59;5051783;28;20041;-51
2023/02/06 00:18:59;;;;;;;7.60;4.00;;;;;;;14.27;41.92;102250.59;5051723;28;20049;-50
2023/02/06 00:21:30;;;;;;;8.18;5.00;;;;;;;14.24;42.25;102261.47;5051673;28;20055;-51
2023/02/06 00:24:00;;;;;;;7.88;4.47;;;;;;;14.21;41.68;102266.97;5051623;28;20387;-50
2023/02/06 00:26:30;;;;;;;6.78;4.35;;;;;;;14.19;42.11;102266.19;5051624;28;20103;-52
2023/02/06 00:28:58;;;;;;;8.18;4.93;;;;;;;14.15;41.89;102283.31;5051725;28;20056;-51
2023/02/06 00:31:26;;;;;;;7.13;4.55;;;;;;;14.13;42.23;102289.72;5051392;28;20045;-52
2023/02/06 00:33:55;;;;;;;10.73;5.82;;;;;;;14.10;41.87;102296.09;5051633;28;20053;-52
2023/02/06 00:36:23;;;;;;;8.63;5.00;;;;;;;14.05;42.30;102292.72;5054463;28;20077;-51
2023/02/06 00:38:52;;;;;;;7.18;4.45;;;;;;;14.03;43.02;102286.53;5055715;28;20052;-53
2023/02/06 00:41:20;;;;;;;7.75;5.15;;;;;;;14.00;42.15;102287.56;5055427;28;20055;-53
2023/02/06 00:43:49;;;;;;;7.97;4.78;;;;;;;13.98;42.09;102291.22;5055538;28;20053;-54
2023/02/06 00:46:17;;;;;;;8.52;4.60;;;;;;;13.94;42.25;102293.16;5055354;28;20076;-51
2023/02/06 00:48:45;;;;;;;8.15;4.50;;;;;;;13.92;42.36;102286.13;5055484;28;20052;-53
2023/02/06 00:51:13;;;;;;;9.00;5.13;;;;;;;13.87;42.27;102278.25;5055389;28;20512;-54
2023/02/06 00:53:41;;;;;;;8.60;5.20;;;;;;;13.86;42.96;102289.06;5055199;28;20432;-51
2023/02/06 00:56:11;;;;;;;7.88;5.15;;;;;;;13.82;42.83;102274.03;5055323;28;20068;-52
2023/02/06 00:58:39;;;;;;;8.45;5.30;;;;;;;13.81;42.87;102283.03;5055131;28;20045;-51
2023/02/06 01:01:08;;;;;;;9.02;5.38;;;;;;;13.76;42.06;102272.47;5054955;28;20524;-53
2023/02/06 01:03:37;;;;;;;8.05;5.13;;;;;;;13.73;41.87;102265.44;5055276;28;20045;-52
2023/02/06 01:06:05;;;;;;;8.35;4.97;;;;;;;13.70;42.22;102265.56;5055045;28;20041;-51
2023/02/06 01:08:33;;;;;;;11.02;5.22;;;;;;;13.69;42.49;102268.28;5055059;28;20061;-52
2023/02/06 01:11:01;;;;;;;8.32;4.90;;;;;;;13.65;42.65;102264.88;5055005;28;20045;-51
2023/02/06 01:13:33;;;;;;;8.23;4.85;;;;;;;13.62;42.92;102270.38;5055221;28;20049;-51
2023/02/06 01:16:02;;;;;;;9.70;5.38;;;;;;;13.60;42.64;102285.63;5054882;28;20052;-50
2023/02/06 01:18:30;;;;;;;8.30;4.97;;;;;;;13.57;42.27;102284.88;5055007;28;20129;-51
2023/02/06 01:21:01;;;;;;;8.65;4.93;;;;;;;13.55;42.65;102287.63;5054862;28;20045;-51
2023/02/06 01:23:29;;;;;;;7.13;4.53;;;;;;;13.52;42.59;102277.03;5054791;28;20052;-53
2023/02/06 01:25:57;;;;;;;6.55;4.22;;;;;;;13.49;43.05;102287.88;5054690;28;20044;-51
2023/02/06 01:28:26;;;;;;;8.02;4.63;;;;;;;13.48;43.50;102291.50;5054738;28;20059;-52
2023/02/06 01:30:55;;;;;;;10.73;4.88;;;;;;;13.52;43.91;102293.13;5054823;28;20041;-53
2023/02/06 01:33:24;;;;;;;7.28;4.32;;;;;;;13.58;44.29;102292.88;5054401;28;20041;-53
2023/02/06 01:35:56;;;;;;;7.22;4.30;;;;;;;13.65;44.43;102294.38;5054550;28;20129;-51
2023/02/06 01:38:24;;;;;;;6.88;4.28;;;;;;;13.75;44.25;102287.69;5054365;28;20049;-51
2023/02/06 01:40:57;;;;;;;7.82;4.20;;;;;;;13.85;44.21;102280.13;5054538;28;20570;-53
2023/02/06 01:43:27;;;;;;;;;;;;;;;13.97;44.04;102284.09;5054801;28;20068;-51
2023/02/06 01:45:57;;;;;;;6.18;4.03;;;;;;;14.07;44.06;102285.47;5054168;28;19928;-50
2023/02/06 01:48:32;;;;;;;8.38;4.57;;;;;;;14.13;43.85;102271.78;5054279;28;20051;-52
2023/02/06 01:51:02;;;;;;;8.32;4.82;;;;;;;14.24;43.85;102272.19;5054187;28;20482;-51
2023/02/06 01:53:31;;;;;;;6.32;4.30;;;;;;;14.36;43.63;102286.03;5054135;28;20041;-51
2023/02/06 01:56:02;;;;;;;8.13;4.68;;;;;;;14.47;43.44;102281.06;5054178;28;20052;-51
2023/02/06 01:58:34;;;;;;;7.03;4.30;;;;;;;14.53;43.28;102262.03;5054197;28;20490;-53
2023/02/06 02:01:05;;;;;;;6.68;4.10;;;;;;;14.59;43.25;102261.75;5053986;28;20076;-52
2023/02/06 02:03:36;;;;;;;7.00;4.50;;;;;;;14.62;43.17;102266.09;5053986;28;20049;-52
2023/02/06 02:06:08;;;;;;;7.93;4.63;;;;;;;14.60;43.04;102258.13;5054040;28;20048;-51
2023/02/06 02:08:39;;;;;;;7.05;4.45;;;;;;;14.61;42.91;102257.19;5053952;28;20049;-52
2023/02/06 02:11:09;;;;;;;7.05;4.28;;;;;;;14.61;43.11;102259.88;5053936;28;20087;-50
2023/02/06 02:13:38;;;;;;;7.70;4.85;;;;;;;14.56;43.04;102251.13;5053807;28;20448;-50
2023/02/06 02:16:16;;;;;;;6.72;4.32;;;;;;;14.51;43.02;102239.75;5053725;28;20405;-53
2023/02/06 02:19:01;;;;;;;7.47;4.22;;;;;;;14.53;43.13;102246.78;5053815;28;20449;-51
2023/02/06 02:22:08;;;;;;;9.27;4.80;;;;;;;14.49;43.15;102250.56;5053856;28;20045;-53
2023/02/06 02:25:01;;;;;;;7.35;4.35;;;;;;;14.46;43.44;102257.84;5053316;28;20119;-50
2023/02/06 02:27:39;;;;;;;;;;;;;;;14.43;43.28;102249.91;5053481;28;20069;-49
2023/02/06 02:30:38;;;;;;;7.78;4.40;;;;;;;14.39;43.39;102261.75;5053527;28;19920;-51
2023/02/06 02:33:37;;;;;;;8.45;4.40;;;;;;;14.33;43.40;102261.06;5053440;28;20048;-51
2023/02/06 02:36:13;;;;;;;7.18;4.40;;;;;;;14.26;43.21;102248.84;5053504;28;20433;-52
2023/02/06 02:38:53;;;;;;;7.55;4.28;;;;;;;14.26;42.97;102259.56;5053354;28;20076;-52
2023/02/06 02:41:28;;;;;;;8.43;4.65;;;;;;;14.23;42.41;102265.09;5053246;28;20061;-52
2023/02/06 02:44:01;;;;;;;6.57;4.40;;;;;;;14.18;42.67;102267.09;5049360;28;20052;-51
2023/02/06 02:46:34;;;;;;;9.00;4.93;;;;;;;14.15;42.59;102266.34;5053294;28;20067;-52
2023/02/06 02:49:07;;;;;;;7.88;4.63;;;;;;;14.07;42.29;102266.69;5053407;28;20116;-50
2023/02/06 02:51:38;;;;;;;6.65;3.97;;;;;;;14.06;42.85;102261.38;5053102;28;20045;-53
2023/02/06 02:54:06;;;;;;;7.47;4.82;;;;;;;14.03;42.89;102267.75;5053228;28;20063;-50
2023/02/06 02:56:35;;;;;;;7.30;4.40;;;;;;;13.97;42.77;102262.66;5053172;28;20041;-52
2023/02/06 02:59:07;;;;;;;5.82;3.95;;;;;;;13.95;42.74;102273.44;5052442;28;20049;-51
2023/02/06 03:01:39;;;;;;;6.77;4.13;;;;;;;13.90;43.12;102282.66;5052890;28;20048;-51
2023/02/06 03:04:12;;;;;;;7.67;4.00;;;;;;;13.86;43.03;102275.66;5052807;28;20048;-50
2023/02/06 03:07:08;;;;;;;5.82;4.00;;;;;;;13.82;42.58;102279.41;5052995;28;20052;-50
2023/02/06 03:09:49;;;;;;;7.00;4.45;;;;;;;13.77;43.21;102282.25;5052928;28;20049;-54
2023/02/06 03:12:22;;;;;;;7.50;4.53;;;;;;;13.73;43.27;102286.88;5052726;28;20051;-51
2023/02/06 03:14:56;;;;;;;8.85;5.15;;;;;;;13.70;42.85;102292.38;5052676;28;20083;-51
2023/02/06 03:17:29;;;;;;;;;;;;;;;13.65;43.23;102285.47;5053762;28;20051;-54
2023/02/06 03:20:01;;;;;;;8.00;5.03;;;;;;;13.57;43.33;102285.75;5057907;28;19953;-52
2023/02/06 03:22:34;;;;;;;8.00;4.50;;;;;;;13.57;43.21;102285.75;5058035;28;20095;-52
2023/02/06 03:25:04;;;;;;;8.00;4.60;;;;;;;13.54;43.11;102280.53;5053873;28;20048;-51
2023/02/06 03:27:36;;;;;;;8.13;4.65;;;;;;;13.49;43.29;102287.88;5053233;28;20102;-51
2023/02/06 03:30:07;;;;;;;7.38;4.43;;;;;;;13.45;43.35;102278.22;5048699;28;20064;-54
2023/02/06 03:32:42;;;;;;;8.07;4.75;;;;;;;13.37;43.02;102272.28;5032658;28;20053;-53
2023/02/06 03:35:16;;;;;;;9.63;4.97;;;;;;;13.37;43.20;102278.53;5032504;28;20076;-51
2023/02/06 03:37:47;;;;;;;6.55;4.20;;;;;;;13.35;43.40;102285.75;5032417;28;20045;-51
2023/02/06 03:40:17;;;;;;;8.20;4.70;;;;;;;13.30;43.13;102282.38;5032526;28;20598;-51
2023/02/06 03:42:50;;;;;;;7.03;4.35;;;;;;;13.26;43.27;102275.41;5032508;28;20053;-51
2023/02/06 03:45:25;;;;;;;8.88;4.85;;;;;;;13.27;42.96;102281.63;5032224;28;20049;-51
2023/02/06 03:47:58;;;;;;;8.07;4.63;;;;;;;13.22;43.20;102288.97;5032146;28;20076;-51
2023/02/06 03:50:27;;;;;;;7.75;4.82;;;;;;;13.20;43.32;102290.84;5032035;28;20120;-51
2023/02/06 03:53:04;;;;;;;7.43;4.57;;;;;;;13.21;43.38;102295.25;5032256;28;20050;-50
2023/02/06 03:55:32;;;;;;;6.93;4.38;;;;;;;13.21;43.67;102276.50;5031986;28;20060;-51
2023/02/06 03:58:05;;;;;;;7.75;4.70;;;;;;;13.29;43.85;102279.75;5032177;28;20072;-52
2023/02/06 04:00:37;;;;;;;9.10;4.47;;;;;;;13.38;43.81;102293.66;5031858;28;20100;-51
2023/02/06 04:03:06;;;;;;;8.25;4.88;;;;;;;13.46;43.67;102283.50;5032056;28;20045;-53
2023/02/06 04:05:34;;;;;;;8.00;4.45;;;;;;;13.59;43.57;102289.25;5031922;28;20040;-54
2023/02/06 04:08:04;;;;;;;7.03;4.60;;;;;;;13.68;43.33;102279.97;5031923;28;20050;-50
2023/02/06 04:10:32;;;;;;;8.02;4.30;;;;;;;13.78;43.37;102277.78;5030837;28;20045;-50
2023/02/06 04:13:00;;;;;;;6.30;4.15;;;;;;;13.85;43.06;102271.22;5031793;28;20056;-50
2023/02/06 04:15:28;;;;;;;7.95;4.82;;;;;;;13.97;42.96;102265.31;5031671;28;20136;-51
2023/02/06 04:17:56;;;;;;;6.20;4.32;;;;;;;14.07;43.04;102264.00;5031815;28;20042;-57
2023/02/06 04:20:29;;;;;;;6.95;4.28;;;;;;;14.15;42.94;102277.09;5031786;28;20049;-51
2023/02/06 04:22:57;;;;;;;8.82;4.65;;;;;;;14.26;42.53;102282.88;5031749;28;20469;-53
2023/02/06 04:25:27;;;;;;;6.57;4.10;;;;;;;14.31;42.31;102273.69;5043507;28;20049;-53
2023/02/06 04:27:55;;;;;;;8.05;4.47;;;;;;;14.37;42.32;102277.88;5051449;28;20049;-52
2023/02/06 04:30:23;;;;;;;8.35;4.70;;;;;;;14.40;42.62;102280.47;5051585;28;20482;-51
2023/02/06 04:32:52;;;;;;;7.43;4.78;;;;;;;14.41;42.34;102274.16;5051627;28;20136;-53
2023/02/06 04:35:20;;;;;;;8.80;4.63;;;;;;;14.43;42.60;102271.41;5051379;28;20049;-51
2023/02/06 04:37:48;;;;;;;8.43;4.60;;;;;;;14.48;42.68;102285.53;5051172;28;20048;-52
2023/02/06 04:40:16;;;;;;;8.07;4.32;;;;;;;14.53;42.88;102283.50;5049847;28;20045;-53
2023/02/06 04:42:46;;;;;;;7.80;4.72;;;;;;;14.59;42.91;102277.88;5050635;28;20045;-52
2023/02/06 04:45:14;;;;;;;8.75;4.82;;;;;;;14.64;42.81;102272.28;5050689;28;20073;-53
2023/02/06 04:47:43;;;;;;;7.47;4.57;;;;;;;14.67;42.93;102281.09;5050524;28;20049;-51
2023/02/06 04:50:12;;;;;;;7.43;4.63;;;;;;;14.73;42.80;102283.47;5050802;28;20191;-51
2023/02/06 04:52:40;;;;;;;9.63;4.75;;;;;;;14.76;42.69;102288.69;5050550;28;20120;-52
2023/02/06 04:55:09;;;;;;;8.55;4.97;;;;;;;14.82;42.57;102285.75;5051401;28;20060;-51
2023/02/06 04:57:37;;;;;;;8.00;4.90;;;;;;;14.86;42.55;102287.38;5051596;28;20449;-53
2023/02/06 05:00:09;;;;;;;8.05;4.47;;;;;;;14.96;42.64;102289.59;5051225;28;20061;-52
2023/02/06 05:02:38;;;;;;;7.75;4.25;;;;;;;15.03;42.39;102285.69;5051156;28;20490;-50
2023/02/06 05:05:08;;;;;;;7.50;4.20;;;;;;;15.05;42.42;102289.16;5051329;28;20870;-54
2023/02/06 05:07:37;;;;;;;8.32;4.80;;;;;;;15.12;42.15;102296.00;5051263;28;20067;-50
2023/02/06 05:10:07;;;;;;;7.97;4.72;;;;;;;15.17;42.15;102297.56;5051580;28;20067;-51
2023/02/06 05:12:39;;;;;;;8.63;5.18;;;;;;;15.24;42.03;102300.81;5051087;28;20099;-50
2023/02/06 05:15:09;;;;;;;7.85;4.60;;;;;;;15.31;41.80;102309.47;5051156;28;20053;-50
2023/02/06 05:17:37;;;;;;;8.35;4.70;;;;;;;15.36;41.70;102308.31;5051163;28;20076;-50
2023/02/06 05:20:07;;;;;;;7.70;4.20;;;;;;;15.41;41.74;102305.38;5051044;28;20041;-53
2023/02/06 05:22:36;;;;;;;7.72;4.80;;;;;;;15.50;41.54;102304.06;5053986;28;20109;-51
2023/02/06 05:25:04;;;;;;;10.02;4.50;;;;;;;15.56;41.56;102293.03;5054718;28;20040;-53
2023/02/06 05:27:32;;;;;;;8.85;4.95;;;;;;;15.65;41.40;102298.88;5054520;28;20052;-53
2023/02/06 05:30:02;;;;;;;7.05;4.38;;;;;;;15.71;41.16;102297.69;5054669;28;20049;-51
2023/02/06 05:32:32;;;;;;;6.50;4.25;;;;;;;15.80;41.12;102297.22;5054443;28;20051;-52
2023/02/06 05:35:00;;;;;;;6.50;4.05;;;;;;;15.87;41.11;102304.06;5054250;28;20052;-54
2023/02/06 05:37:28;;;;;;;7.85;4.30;;;;;;;15.91;40.94;102305.63;5054590;28;20053;-53
2023/02/06 05:39:57;;;;;;;8.57;4.70;;;;;;;15.93;40.73;102306.44;5054484;28;20528;-50
2023/02/06 05:42:27;;;;;;;9.40;4.53;;;;;;;15.94;40.83;102307.31;5054345;28;20076;-50
2023/02/06 05:44:55;;;;;;;8.32;4.60;;;;;;;15.91;40.66;102311.00;5054264;28;20045;-51
2023/02/06 05:47:23;;;;;;;7.18;4.40;;;;;;;15.93;40.75;102314.53;5054110;28;20053;-51
2023/02/06 05:49:53;;;;;;;7.10;4.70;;;;;;;15.91;40.79;102316.38;5054258;28;20044;-51
2023/02/06 05:52:21;;;;;;;7.68;4.90;;;;;;;15.91;40.79;102312.81;5054096;28;20044;-50
2023/02/06 05:54:49;;;;;;;8.88;4.47;;;;;;;15.91;40.66;102311.00;5054042;28;20049;-51
2023/02/06 05:57:17;;;;;;;6.78;4.38;;;;;;;15.94;40.64;102315.38;5054098;28;20045;-52
2023/02/06 05:59:45;;;;;;;7.68;4.55;;;;;;;15.91;40.47;102300.25;5053667;28;20044;-51
2023/02/06 06:02:13;;;;;;;7.93;4.43;;;;;;;16.00;40.64;102310.56;5053866;28;20056;-50
2023/02/06 06:04:41;;;;;;;8.27;4.63;;;;;;;16.03;40.56;102309.53;5053604;28;20049;-49
2023/02/06 06:07:11;;;;;;;6.85;4.57;;;;;;;16.09;40.49;102308.34;5053927;28;20451;-52
2023/02/06 06:09:40;;;;;;;7.50;4.45;;;;;;;16.11;40.38;102306.44;5053855;28;20055;-56
2023/02/06 06:12:08;;;;;;;7.10;4.68;;;;;;;16.14;40.31;102312.56;5053600;28;20504;-50
2023/02/06 06:14:36;;;;;;;8.18;4.65;;;;;;;16.18;40.25;102310.56;5053480;28;20045;-52
2023/02/06 06:17:04;;;;;;;7.93;4.60;;;;;;;16.23;40.13;102305.84;5053411;28;20120;-50
2023/02/06 06:19:32;;;;;;;7.07;4.25;;;;;;;16.26;40.09;102305.66;5053552;28;20040;-51
2023/02/06 06:22:01;;;;;;;7.47;4.60;;;;;;;16.30;40.09;102299.16;5053352;28;20210;-51
2023/02/06 06:24:30;;;;;;;7.18;4.45;;;;;;;16.36;40.05;102304.25;5052101;28;20041;-53
2023/02/06 06:26:58;;;;;;;7.75;4.50;;;;;;;16.43;39.84;102302.09;5053360;28;20482;-51
2023/02/06 06:29:27;;;;;;;8.27;4.63;;;;;;;16.46;39.80;102297.41;5053379;28;20060;-55
2023/02/06 06:31:55;;;;;;;7.47;4.88;;;;;;;16.50;39.63;102293.63;5053112;28;20052;-55
2023/02/06 06:34:25;;;;;;;8.02;4.57;;;;;;;16.59;39.69;102306.59;5052128;28;20067;-52
2023/02/06 06:36:53;;;;;;;7.07;4.40;;;;;;;16.62;39.50;102302.00;5052946;28;20048;-52
2023/02/06 06:39:21;;;;;;;7.65;4.63;;;;;;;16.62;39.45;102302.00;5053152;28;20451;-54
2023/02/06 06:41:51;;;;;;;8.80;4.95;;;;;;;16.60;39.50;102297.59;5053122;28;20120;-52
2023/02/06 06:44:19;;;;;;;6.53;4.57;;;;;;;16.57;39.52;102294.16;5052844;28;20041;-51
2023/02/06 06:46:47;;;;;;;8.57;5.40;;;;;;;16.54;39.57;102311.38;5052865;28;20048;-53
2023/02/06 06:49:15;;;;;;;7.22;4.85;;;;;;;16.48;39.53;102306.28;5052566;28;20076;-53
2023/02/06 06:51:43;;;;;;;8.95;5.28;;;;;;;16.43;39.55;102310.19;5052613;28;20152;-52
2023/02/06 06:54:11;;;;;;;7.40;4.93;;;;;;;16.35;39.46;102305.19;5052680;28;20045;-52
2023/02/06 06:56:40;;;;;;;8.20;5.00;;;;;;;16.31;39.54;102299.09;5052566;28;20086;-51
2023/02/06 06:59:09;;;;;;;7.63;4.72;;;;;;;16.24;39.81;102296.81;5052975;28;20060;-51
2023/02/06 07:01:37;;;;;;;7.85;5.18;;;;;;;16.17;39.93;102304.31;5052664;28;20056;-52
2023/02/06 07:04:05;;;;;;;11.15;4.90;;;;;;;16.11;40.10;102311.81;5053100;28;20045;-51
2023/02/06 07:06:33;;;;;;;8.95;5.30;;;;;;;16.03;40.14;102309.53;5052547;28;20044;-53
2023/02/06 07:09:02;;;;;;;10.27;5.30;;;;;;;15.96;39.75;102303.59;5052499;28;20588;-52
2023/02/06 07:11:31;;;;;;;8.80;5.00;;;;;;;15.90;39.88;102305.72;5052547;28;20044;-52
2023/02/06 07:14:01;;;;;;;7.88;5.22;;;;;;;15.80;39.90;102307.97;5051040;28;20440;-54
2023/02/06 07:16:34;;;;;;;9.68;5.03;;;;;;;15.75;40.13;102299.28;5052419;28;20052;-52
2023/02/06 07:19:06;;;;;;;8.20;4.78;;;;;;;15.69;40.31;102299.56;5052444;28;20095;-54
2023/02/06 07:21:34;;;;;;;9.30;5.53;;;;;;;15.62;40.50;102304.38;5052262;28;20040;-53
2023/02/06 07:24:03;;;;;;;9.40;5.70;;;;;;;15.55;39.79;102302.06;5052274;28;20053;-51
2023/02/06 07:26:32;;;;;;;9.88;5.72;;;;;;;15.49;39.24;102313.09;5052434;28;20103;-52
2023/02/06 07:29:00;;;;;;;9.07;6.00;;;;;;;15.45;39.00;102318.63;5052350;28;20049;-51
2023/02/06 07:31:28;;;;;;;9.60;6.47;;;;;;;15.39;38.86;102323.41;5052085;28;20057;-53
2023/02/06 07:34:01;;;;;;;10.75;6.45;;;;;;;15.34;38.45;102325.44;5052001;28;20055;-54
2023/02/06 07:36:29;;;;;;;8.65;5.32;;;;;;;15.29;39.76;102324.81;5052015;28;20134;-55
2023/02/06 07:38:57;;;;;;;10.63;6.20;;;;;;;15.24;39.54;102327.69;5052034;28;20049;-51
2023/02/06 07:41:25;;;;;;;9.40;5.40;;;;;;;15.20;40.92;102328.78;5051954;28;20041;-54
2023/02/06 07:43:54;;;;;;;9.18;5.18;;;;;;;15.18;41.44;102318.13;5051858;28;20040;-52
2023/02/06 07:46:22;;;;;;;9.57;5.00;;;;;;;15.17;41.67;102318.19;5051920;28;20069;-52
2023/02/06 07:48:50;;;;;;;8.57;4.85;;;;;;;15.26;42.02;102312.38;5051836;28;20037;-52
2023/02/06 07:51:19;;;;;;;8.88;5.40;;;;;;;15.33;41.99;102312.94;5050625;28;20052;-52
2023/02/06 07:53:48;;;;;;;8.13;5.22;;;;;;;15.41;41.86;102316.16;5051761;28;20052;-52
2023/02/06 07:56:18;;;;;;;8.90;4.85;;;;;;;15.49;41.59;102310.41;5051745;28;20436;-51
2023/02/06 07:58:51;;;;;;;9.90;5.63;;;;;;;15.58;41.41;102312.66;5051411;28;20041;-51
2023/02/06 08:01:19;;;;;;;8.13;5.32;;;;;;;15.62;41.41;102308.88;5051624;28;20060;-50
2023/02/06 08:03:49;;;;;;;8.20;5.47;;;;;;;15.65;41.33;102308.75;5051794;28;20098;-53
2023/02/06 08:06:19;;;;;;;9.35;5.57;;;;;;;15.68;41.28;102311.28;5051834;28;20511;-51
2023/02/06 08:08:50;;;;;;;11.60;5.93;;;;;;;15.71;41.63;102308.44;5051656;28;20505;-54
2023/02/06 08:11:19;;;;;;;9.85;5.47;;;;;;;15.73;41.88;102311.94;5051430;28;20098;-52
2023/02/06 08:13:48;;;;;;;13.02;5.80;;;;;;;15.71;41.60;102311.13;5051577;28;20052;-50
2023/02/06 08:16:19;;;;;;;15.77;5.90;;;;;;;15.71;41.58;102314.69;5051479;28;20114;-51
2023/02/06 08:18:47;;;;;;;11.77;6.00;;;;;;;15.68;41.50;102304.09;5050869;28;20052;-51
2023/02/06 08:21:17;;;;;;;11.95;5.85;;;;;;;15.64;41.51;102305.19;5050781;28;20494;-52
2023/02/06 08:23:47;;;;;;;12.18;5.93;;;;;;;15.63;41.39;102316.00;5051524;28;20509;-51
2023/02/06 08:26:17;;;;;;;14.05;6.20;;;;;;;15.56;41.44;102309.16;5051329;28;20047;-50
2023/02/06 08:28:47;;;;;;;11.63;5.55;;;;;;;15.53;41.47;102309.28;5051394;28;20045;-53
2023/02/06 08:31:18;;;;;;;13.05;5.88;;;;;;;15.51;41.56;102313.88;5051635;28;20041;-50
2023/02/06 08:33:46;;;;;;;13.00;5.68;;;;;;;15.47;41.43;102315.88;5051438;28;20045;-51
2023/02/06 08:36:16;;;;;;;12.35;6.13;;;;;;;15.37;41.56;102315.44;5051396;28;20120;-52
2023/02/06 08:38:45;;;;;;;12.07;5.78;;;;;;;15.38;41.29;102316.31;5051587;28;20412;-52
2023/02/06 08:41:20;;;;;;;14.15;5.85;;;;;;;15.35;41.51;102309.25;5051267;28;20076;-52
2023/02/06 08:43:51;;;;;;;9.85;5.57;;;;;;;15.31;41.36;102314.84;5051274;28;20056;-53
2023/02/06 08:46:21;;;;;;;10.23;5.43;;;;;;;15.27;41.32;102305.19;5051681;28;20045;-52
2023/02/06 08:48:49;;;;;;;9.68;6.00;;;;;;;15.24;41.09;102308.88;5051185;28;20099;-50
2023/02/06 08:51:18;;;;;;;10.80;5.60;;;;;;;15.20;41.21;102298.34;5050960;28;20045;-51
2023/02/06 08:53:46;;;;;;;11.63;5.47;;;;;;;15.17;40.94;102297.56;5051189;28;20120;-53
2023/02/06 08:56:14;;;;;;;14.00;6.00;;;;;;;15.14;41.04;102299.50;5051937;28;20394;-52
2023/02/06 08:58:44;;;;;;;10.13;5.40;;;;;;;15.11;40.56;102307.72;5055180;28;20045;-49
2023/02/06 09:01:15;;;;;;;11.20;5.63;;;;;;;15.08;40.52;102307.88;5054971;28;20484;-50
2023/02/06 09:03:44;;;;;;;10.35;5.68;;;;;;;15.04;40.38;102300.88;5054913;28;20047;-54
2023/02/06 09:06:14;;;;;;;8.77;5.38;;;;;;;15.02;40.16;102308.13;5055269;28;20041;-51
2023/02/06 09:08:43;;;;;;;10.85;5.68;;;;;;;14.96;40.41;102292.28;5054906;28;20139;-53
2023/02/06 09:11:14;;;;;;;11.43;5.60;;;;;;;14.96;40.52;102297.66;5054910;28;20045;-53
2023/02/06 09:13:46;;;;;;;9.70;5.90;;;;;;;14.91;40.45;102299.69;5054990;28;20379;-51
2023/02/06 09:16:18;;;;;;;11.13;5.50;;;;;;;14.87;40.40;102299.84;5054551;28;20044;-51
2023/02/06 09:18:46;;;;;;;11.13;5.70;;;;;;;14.85;40.40;102300.84;5054761;28;20103;-52
2023/02/06 09:21:17;;;;;;;13.88;5.22;;;;;;;14.81;39.72;102301.94;5054871;28;20497;-53
2023/02/06 09:23:46;;;;;;;9.88;5.55;;;;;;;14.79;40.31;102302.00;5054862;28;20095;-53
2023/02/06 09:26:16;;;;;;;9.73;5.55;;;;;;;14.76;39.72;102299.44;5054572;28;20056;-51
2023/02/06 09:28:46;;;;;;;13.38;5.70;;;;;;;14.75;39.78;102310.25;5054612;28;20045;-52
2023/02/06 09:31:14;;;;;;;9.88;5.78;;;;;;;14.70;40.02;102302.44;5054511;28;20053;-52
2023/02/06 09:33:43;;;;;;;10.32;5.10;;;;;;;14.70;40.22;102307.81;5054415;28;20075;-53
2023/02/06 09:36:14;;;;;;;9.55;5.47;;;;;;;14.66;40.09;102298.13;5054489;28;20398;-52
2023/02/06 09:38:44;;;;;;;10.38;5.65;;;;;;;14.66;40.29;102308.84;5054226;28;20041;-53
2023/02/06 09:41:17;;;;;;;9.30;5.45;;;;;;;14.64;40.28;102313.44;5054333;28;20045;-52
2023/02/06 09:43:51;;;;;;;10.77;5.63;;;;;;;14.61;40.51;102305.53;5054213;28;20156;-52
2023/02/06 09:46:22;;;;;;;9.95;5.72;;;;;;;14.59;40.36;102299.34;5054276;28;20053;-53
2023/02/06 09:48:50;;;;;;;10.25;5.47;;;;;;;14.57;40.43;102303.91;5054126;28;20052;-50
2023/02/06 09:51:25;;;;;;;8.40;5.00;;;;;;;14.56;40.45;102297.66;5054015;28;20078;-52
2023/02/06 09:54:05;;;;;;;9.15;5.32;;;;;;;14.55;40.31;102295.03;5054103;28;20123;-51
2023/02/06 09:56:44;;;;;;;9.60;5.88;;;;;;;14.55;39.99;102295.03;5053902;28;20060;-50
2023/02/06 09:59:22;;;;;;;8.90;5.32;;;;;;;14.52;39.85;102285.31;5054064;28;20044;-52
2023/02/06 10:02:08;;;;;;;9.32;5.65;;;;;;;14.53;39.73;102288.88;5053786;28;20080;-49
2023/02/06 10:04:46;;;;;;;8.15;5.05;;;;;;;14.54;39.73;102296.84;5053946;28;20072;-52
2023/02/06 10:07:25;;;;;;;10.15;5.45;;;;;;;14.55;39.67;102295.03;5053916;28;20045;-50
2023/02/06 10:09:59;;;;;;;9.82;5.20;;;;;;;14.54;39.60;102286.13;5053680;28;20077;-51
2023/02/06 10:12:35;;;;;;;8.18;5.32;;;;;;;14.55;38.43;102276.25;5053765;28;20406;-53
2023/02/06 10:15:11;;;;;;;8.75;5.65;;;;;;;14.58;38.42;102282.38;5053589;28;20132;-52
2023/02/06 10:17:49;;;;;;;10.05;5.90;;;;;;;14.59;38.72;102273.38;5053391;28;20490;-51
2023/02/06 10:20:22;;;;;;;8.57;5.28;;;;;;;14.61;38.56;102275.97;5053777;28;20049;-51
2023/02/06 10:22:59;;;;;;;8.38;5.10;;;;;;;14.61;38.78;102267.91;5054076;28;20059;-53
2023/02/06 10:25:32;;;;;;;8.98;4.97;;;;;;;14.61;39.11;102267.91;5053492;28;20048;-52
2023/02/06 10:28:07;;;;;;;8.18;5.10;;;;;;;14.62;39.10;102263.41;5053434;28;20111;-52
2023/02/06 10:30:51;;;;;;;10.77;5.53;;;;;;;14.62;38.90;102269.66;5053360;28;20537;-50
2023/02/06 10:33:28;;;;;;;8.88;5.20;;;;;;;14.63;38.90;102260.66;5053302;28;20048;-52
2023/02/06 10:36:06;;;;;;;8.20;5.40;;;;;;;14.66;39.24;102256.97;5053279;28;20075;-51
2023/02/06 10:39:06;;;;;;;8.20;5.18;;;;;;;14.63;39.06;102252.59;5053538;28;20059;-50
2023/02/06 10:41:40;;;;;;;7.55;4.95;;;;;;;14.69;38.89;102256.84;5053142;28;20496;-53
2023/02/06 10:44:19;;;;;;;10.48;4.95;;;;;;;14.71;39.05;102247.75;5053106;28;20037;-52
2023/02/06 10:46:50;;;;;;;8.93;5.13;;;;;;;14.73;39.18;102253.94;5053233;28;20124;-52
2023/02/06 10:49:24;;;;;;;10.07;5.38;;;;;;;14.73;39.25;102245.88;5053637;28;20048;-50
2023/02/06 10:51:55;;;;;;;8.65;5.25;;;;;;;14.75;39.23;102241.28;5053522;28;20067;-50
2023/02/06 10:54:26;;;;;;;7.53;4.90;;;;;;;14.77;39.24;102241.25;5052879;28;20079;-51
2023/02/06 10:56:59;;;;;;;9.13;5.22;;;;;;;14.78;39.50;102235.78;5053147;28;20115;-50
2023/02/06 10:59:32;;;;;;;9.20;5.43;;;;;;;14.79;39.25;102232.16;5052690;28;20501;-49
2023/02/06 11:02:19;;;;;;;8.23;4.90;;;;;;;14.82;39.45;102232.00;5052702;28;20083;-50
2023/02/06 11:04:54;;;;;;;8.68;5.15;;;;;;;14.82;39.43;102228.47;5052464;28;20041;-51
2023/02/06 11:07:26;;;;;;;7.78;4.68;;;;;;;14.80;39.37;102228.53;5052550;28;20045;-50
2023/02/06 11:09:55;;;;;;;8.98;5.55;;;;;;;14.87;39.41;102227.31;5052530;28;20045;-50
2023/02/06 11:12:31;;;;;;;8.00;4.82;;;;;;;14.89;39.22;102225.41;5052334;28;20498;-50
2023/02/06 11:15:04;;;;;;;10.20;5.35;;;;;;;14.90;39.14;102223.59;5052430;28;20060;-50
2023/02/06 11:17:34;;;;;;;8.02;4.75;;;;;;;14.93;39.40;102219.88;5052400;28;20474;-50
2023/02/06 11:20:19;;;;;;;7.95;4.88;;;;;;;14.96;39.06;102222.41;5051986;28;20057;-50
2023/02/06 11:22:47;;;;;;;;;;;;;;;14.97;39.11;102218.81;5052957;28;20048;-49
2023/02/06 11:25:30;;;;;;;9.38;4.85;;;;;;;14.96;39.10;102207.19;5052357;28;19927;-50
2023/02/06 11:27:59;;;;;;;8.57;5.15;;;;;;;14.98;39.05;102209.81;5052277;28;20044;-49
2023/02/06 11:30:33;;;;;;;8.32;4.68;;;;;;;14.97;39.10;102208.94;5052267;28;20045;-49
2023/02/06 11:33:06;;;;;;;7.55;4.70;;;;;;;14.97;39.00;102208.06;5052292;28;20064;-51
2023/02/06 11:35:38;;;;;;;6.90;4.47;;;;;;;15.00;39.05;102202.53;5052268;28;20103;-51
2023/02/06 11:38:15;;;;;;;8.15;4.60;;;;;;;15.00;39.04;102194.47;5051964;28;20458;-51
2023/02/06 11:40:53;;;;;;;8.30;4.95;;;;;;;15.00;39.20;102197.16;5052156;28;20052;-52
2023/02/06 11:43:23;;;;;;;7.70;4.47;;;;;;;14.99;38.95;102188.22;5052011;28;20489;-50